Airfield :
LOGIN :

Register | Disclaimer

   EN    FR    IT 

 










Legend :    VFR   Marginal VFR   IFR   Intensive IFR   Very Intensive IFR
Visi :
Ceiling :
>= 8 km
>= 3000ft
5 to 8 km
1000 to 3000 ft
1500m to 5 km
500 to 1000 ft
800 to 1500m
200 to 500 ft
< 800m
< 200 ft
Symbols :   Thunderstorms  Fog  Heavy snow  Heavy precipitations  Wind > 20 kt
SIGMETs :     Misc.  Thunderstorms  Icing  Turbulence  Mountain Waves  Volcanic Ashes







- Airport Elevation : 1247 ft
- IATA code : PRG


LKPR - Praha Ruzyne

CURRENT METAR :
  • 192200Z 09007KT CAVOK 15/10 Q1003 NOSIG

EXPIRED METARs :
  • 192130Z VRB02KT CAVOK 16/10 Q1003 NOSIG
  • 192100Z 17002KT CAVOK 16/09 Q1003 NOSIG
  • 192030Z 15005KT CAVOK 17/09 Q1003 NOSIG
  • 192000Z 15006KT CAVOK 17/10 Q1003 NOSIG
  • 191930Z 16009KT CAVOK 18/09 Q1004 NOSIG

TAF TAF LKPR
Valid from the 19 at 18:00 until the 21 at 00:00 UTC


191700Z 1918/2100 11006KT 9999 SCT035
TEMPO 2002/2006 3000 BR SCT011
BECMG 2003/2005 VRB02KT
BECMG 2006/2008 BKN015
TEMPO 2008/2016 2500 RA BR OVC009
BECMG 2009/2011 13008KT
PROB30
TEMPO 2010/2019 4000 TSRA BKN012 SCT025CB
BECMG 2019/2022 4000 BR SCT013
No reported NOTAMs for that airfield.



MET'MAP, your aeronautical weather chart ! - Copyright ORBIFLY December 2007 - Disclaimer

ORBIFLY MET'MAP TEAM :

Programming & Development : Alexandra Zaïnal
Concept & Development : Baudouin d'Aumeries
Co-Development & Prog : Marc-Olivier Méhu
Technical & hardware support : Manuel Goepfert

Contact : metmap@orbifly.com




SOURCES & CREDITS :

   NOAA